Time;durP1;ratioP1;P1;durP2;ratioP2;P2;SDS_P1;SDS_P2;PMS_P1;PMS_P2;Temp;Humidity;BMP_temperature;BMP_pressure;BME280_temperature;BME280_humidity;BME280_pressure;Samples;Min_cycle;Max_cycle;Signal;HPM_P1;HPM_P2
2022/09/24 00:01:59;;;;;;;;;;;12.90;99.90;;;;;;4990811;28;19988;-64
2022/09/24 00:04:28;;;;;;;;;;;12.80;99.90;;;;;;4990991;28;19930;-64
2022/09/24 00:06:55;;;;;;;;;;;12.80;99.90;;;;;;4991113;28;19926;-61
2022/09/24 00:09:21;;;;;;;;;;;12.80;99.90;;;;;;4990911;28;19926;-64
2022/09/24 00:11:48;;;;;;;;;;;12.70;99.90;;;;;;4990025;28;19933;-64
2022/09/24 00:14:16;;;;;;;;;;;12.80;99.90;;;;;;4992242;28;20340;-64
2022/09/24 00:16:43;;;;;;;;;;;12.80;99.90;;;;;;4994672;28;19925;-65
2022/09/24 00:19:11;;;;;;;;;;;12.70;99.90;;;;;;4994407;28;19937;-63
2022/09/24 00:21:40;;;;;;;;;;;12.70;99.90;;;;;;4994192;28;20405;-64
2022/09/24 00:24:07;;;;;;;;;;;12.70;99.90;;;;;;4994107;28;19930;-63
2022/09/24 00:26:48;;;;;;;;;;;12.70;99.90;;;;;;4994314;28;19933;-64
2022/09/24 00:29:16;;;;;;;;;;;12.70;99.90;;;;;;4994188;28;19929;-64
2022/09/24 00:31:43;;;;;;;;;;;12.80;99.90;;;;;;4994344;28;20324;-64
2022/09/24 00:34:10;;;;;;;;;;;12.70;99.90;;;;;;4994046;28;19933;-67
2022/09/24 00:36:37;;;;;;;;;;;12.70;99.90;;;;;;4994133;28;19925;-66
2022/09/24 00:39:06;;;;;;;;;;;12.70;99.90;;;;;;4994890;28;19926;-66
2022/09/24 00:41:34;;;;;;;;;;;12.70;99.90;;;;;;4993870;28;19965;-66
2022/09/24 00:44:01;;;;;;;;;;;12.70;99.90;;;;;;4993743;28;19961;-66
2022/09/24 00:46:30;;;;;;;;;;;12.60;99.90;;;;;;4994052;28;19934;-64
2022/09/24 00:48:59;;;;;;;;;;;12.60;99.90;;;;;;4993604;28;19972;-64
2022/09/24 00:51:28;;;;;;;;;;;12.60;99.90;;;;;;4994016;28;20348;-67
2022/09/24 00:53:56;;;;;;;;;;;12.60;99.90;;;;;;4993649;28;19926;-66
2022/09/24 00:56:25;;;;;;;;;;;12.60;99.90;;;;;;4994766;28;19932;-66
2022/09/24 00:58:55;;;;;;;;;;;12.60;99.90;;;;;;4995050;28;19925;-66
2022/09/24 01:01:23;;;;;;;;;;;12.60;99.90;;;;;;4994221;28;19925;-67
2022/09/24 01:03:50;;;;;;;;;;;12.70;99.90;;;;;;4994179;28;19980;-67
2022/09/24 01:06:17;;;;;;;;;;;12.70;99.90;;;;;;4994588;28;19957;-66
2022/09/24 01:08:44;;;;;;;;;;;12.70;99.90;;;;;;4994505;28;19976;-64
2022/09/24 01:11:18;;;;;;;;;;;12.70;99.90;;;;;;4994159;28;19932;-65
2022/09/24 01:14:00;;;;;;;;;;;12.70;99.90;;;;;;4993289;28;19933;-67
2022/09/24 01:16:32;;;;;;;;;;;12.70;99.90;;;;;;4993376;28;19933;-63
2022/09/24 01:19:04;;;;;;;;;;;12.70;99.90;;;;;;4993543;28;19926;-66
2022/09/24 01:21:35;;;;;;;;;;;12.70;99.90;;;;;;4993037;28;19929;-65
2022/09/24 01:24:17;;;;;;;;;;;12.70;99.90;;;;;;4992942;28;19981;-65
2022/09/24 01:26:50;;;;;;;;;;;12.70;99.90;;;;;;4980248;28;19926;-67
2022/09/24 01:29:23;;;;;;;;;;;12.70;99.90;;;;;;4993217;28;19984;-66
2022/09/24 01:31:51;;;;;;;;;;;12.60;99.90;;;;;;4993335;28;19926;-66
2022/09/24 01:34:21;;;;;;;;;;;12.60;99.90;;;;;;4992946;28;19933;-66
2022/09/24 01:36:49;;;;;;;;;;;12.50;99.90;;;;;;4992925;28;19936;-66
2022/09/24 01:39:17;;;;;;;;;;;12.50;99.90;;;;;;4992901;28;20341;-66
2022/09/24 01:41:46;;;;;;;;;;;12.50;99.90;;;;;;4993145;28;19925;-65
2022/09/24 01:44:13;;;;;;;;;;;12.50;99.90;;;;;;4992208;28;19964;-66
2022/09/24 01:46:41;;;;;;;;;;;12.60;99.90;;;;;;4993039;28;20332;-67
2022/09/24 01:49:08;;;;;;;;;;;12.60;99.90;;;;;;4992755;28;19926;-66
2022/09/24 01:51:40;;;;;;;;;;;12.50;99.90;;;;;;4992916;28;19926;-66
2022/09/24 01:54:10;;;;;;;;;;;12.50;99.90;;;;;;4992684;28;19933;-66
2022/09/24 01:56:41;;;;;;;;;;;12.50;99.90;;;;;;5016443;22;20353;-66
2022/09/24 01:59:10;;;;;;;;;;;12.40;99.90;;;;;;4993139;28;19992;-67
2022/09/24 02:01:40;;;;;;;;;;;12.40;99.90;;;;;;4991726;28;20448;-66
2022/09/24 02:04:11;;;;;;;;;;;12.40;99.90;;;;;;4991546;28;20012;-65
2022/09/24 02:06:40;;;;;;;;;;;12.40;99.90;;;;;;4991569;28;19969;-67
2022/09/24 02:09:22;;;;;;;;;;;12.30;99.90;;;;;;4991663;28;19980;-66
2022/09/24 02:11:51;;;;;;;;;;;12.40;99.90;;;;;;4990890;28;19926;-66
2022/09/24 02:14:19;;;;;;;;;;;12.40;99.90;;;;;;4991362;28;19969;-69
2022/09/24 02:16:47;;;;;;;;;;;12.40;99.90;;;;;;4991638;28;19925;-67
2022/09/24 02:19:17;;;;;;;;;;;12.40;99.90;;;;;;4991284;28;19953;-67
2022/09/24 02:21:45;;;;;;;;;;;12.40;99.90;;;;;;4991761;28;20350;-67
2022/09/24 02:24:14;;;;;;;;;;;12.40;99.90;;;;;;4991659;28;19933;-67
2022/09/24 02:26:40;;;;;;;;;;;12.30;99.90;;;;;;4991743;28;19930;-67
2022/09/24 02:29:07;;;;;;;;;;;12.30;99.90;;;;;;4991364;28;19933;-69
2022/09/24 02:31:37;;;;;;;;;;;12.30;99.90;;;;;;4991563;28;19933;-67
2022/09/24 02:34:21;;;;;;;;;;;12.30;99.90;;;;;;4991406;28;19929;-66
2022/09/24 02:36:50;;;;;;;;;;;12.30;99.90;;;;;;4990367;28;19926;-66
2022/09/24 02:39:17;;;;;;;;;;;12.30;99.90;;;;;;4991279;28;20366;-67
2022/09/24 02:41:46;;;;;;;;;;;12.30;99.90;;;;;;4991384;28;19929;-67
2022/09/24 02:44:14;;;;;;;;;;;12.40;99.90;;;;;;4990982;28;19936;-66
2022/09/24 02:46:41;;;;;;;;;;;12.40;99.90;;;;;;4991102;28;20020;-67
2022/09/24 02:49:08;;;;;;;;;;;12.40;99.90;;;;;;4990982;28;19930;-67
2022/09/24 02:51:35;;;;;;;;;;;12.40;99.90;;;;;;4991162;28;19926;-66
2022/09/24 02:54:04;;;;;;;;;;;12.40;99.90;;;;;;4990865;28;19926;-67
2022/09/24 02:56:31;;;;;;;;;;;12.40;99.90;;;;;;4990668;28;19926;-68
2022/09/24 02:58:59;;;;;;;;;;;12.40;99.90;;;;;;4990589;28;19926;-67
2022/09/24 03:01:26;;;;;;;;;;;12.40;99.90;;;;;;4990810;28;19965;-65
2022/09/24 03:03:53;;;;;;;;;;;12.40;99.90;;;;;;4990762;28;19941;-67
2022/09/24 03:06:20;;;;;;;;;;;12.40;99.90;;;;;;4991077;28;19933;-66
2022/09/24 03:08:47;;;;;;;;;;;12.40;99.90;;;;;;4990635;28;19930;-67
2022/09/24 03:11:15;;;;;;;;;;;12.40;99.90;;;;;;4990640;28;19929;-65
2022/09/24 03:13:42;;;;;;;;;;;12.40;99.90;;;;;;4990509;28;19980;-66
2022/09/24 03:16:09;;;;;;;;;;;12.40;99.90;;;;;;4990625;28;20424;-66
2022/09/24 03:18:36;;;;;;;;;;;12.40;99.90;;;;;;4990731;28;20304;-66
2022/09/24 03:21:04;;;;;;;;;;;12.40;99.90;;;;;;4990403;28;19929;-67
2022/09/24 03:23:31;;;;;;;;;;;12.30;99.90;;;;;;4990369;28;19925;-67
2022/09/24 03:25:58;;;;;;;;;;;12.30;99.90;;;;;;4990490;28;20328;-66
2022/09/24 03:28:26;;;;;;;;;;;12.30;99.90;;;;;;4990474;28;19936;-66
2022/09/24 03:31:01;;;;;;;;;;;12.30;99.90;;;;;;4990553;28;19925;-67
2022/09/24 03:33:29;;;;;;;;;;;12.30;99.90;;;;;;4990131;28;20344;-68
2022/09/24 03:35:57;;;;;;;;;;;12.30;99.90;;;;;;4990055;28;19952;-67
2022/09/24 03:38:24;;;;;;;;;;;12.20;99.90;;;;;;4987433;28;20301;-66
2022/09/24 03:40:51;;;;;;;;;;;12.10;99.90;;;;;;4990336;28;19965;-67
2022/09/24 03:43:18;;;;;;;;;;;12.10;99.90;;;;;;4990219;28;19926;-67
2022/09/24 03:45:46;;;;;;;;;;;12.10;99.90;;;;;;4989038;28;19953;-67
2022/09/24 03:48:13;;;;;;;;;;;12.20;99.90;;;;;;4990805;28;19965;-66
2022/09/24 03:50:40;;;;;;;;;;;12.20;99.90;;;;;;4993738;28;20012;-68
2022/09/24 03:53:06;;;;;;;;;;;12.20;99.90;;;;;;4993725;28;20408;-66
2022/09/24 03:55:33;;;;;;;;;;;12.10;99.90;;;;;;4993978;28;19933;-66
2022/09/24 03:58:00;;;;;;;;;;;12.10;99.90;;;;;;4994022;28;19949;-67
2022/09/24 04:00:27;;;;;;;;;;;12.10;99.90;;;;;;4993688;28;19929;-67
2022/09/24 04:02:55;;;;;;;;;;;12.10;99.90;;;;;;4993530;28;19926;-66
2022/09/24 04:05:22;;;;;;;;;;;12.10;99.90;;;;;;4994156;28;19933;-67
2022/09/24 04:07:49;;;;;;;;;;;12.20;99.90;;;;;;4993720;28;19948;-72
2022/09/24 04:10:15;;;;;;;;;;;12.20;99.90;;;;;;4993525;28;19940;-67
2022/09/24 04:12:42;;;;;;;;;;;12.20;99.90;;;;;;4993648;28;19972;-68
2022/09/24 04:15:09;;;;;;;;;;;12.20;99.90;;;;;;4993666;28;19968;-67
2022/09/24 04:17:36;;;;;;;;;;;12.20;99.90;;;;;;4993532;28;19925;-74
2022/09/24 04:20:05;;;;;;;;;;;12.10;99.90;;;;;;4993334;28;19933;-66
2022/09/24 04:22:32;;;;;;;;;;;12.20;99.90;;;;;;4993572;28;19926;-67
2022/09/24 04:24:59;;;;;;;;;;;12.20;99.90;;;;;;4993648;28;19926;-66
2022/09/24 04:27:26;;;;;;;;;;;12.10;99.90;;;;;;4993532;28;19936;-67
2022/09/24 04:29:53;;;;;;;;;;;12.20;99.90;;;;;;4993196;28;19926;-64
2022/09/24 04:32:21;;;;;;;;;;;12.20;99.90;;;;;;4993106;28;19969;-67
2022/09/24 04:34:48;;;;;;;;;;;12.20;99.90;;;;;;4993186;28;20317;-67
2022/09/24 04:37:16;;;;;;;;;;;12.20;99.90;;;;;;4993545;28;19925;-65
2022/09/24 04:39:43;;;;;;;;;;;12.20;99.90;;;;;;4994129;28;19933;-67
2022/09/24 04:42:10;;;;;;;;;;;12.20;99.90;;;;;;4994049;28;19943;-66
2022/09/24 04:44:36;;;;;;;;;;;12.20;99.90;;;;;;4993894;28;19925;-66
2022/09/24 04:47:06;;;;;;;;;;;12.20;99.90;;;;;;4994018;28;19926;-67
2022/09/24 04:49:33;;;;;;;;;;;12.20;99.90;;;;;;4993989;28;20393;-66
2022/09/24 04:51:59;;;;;;;;;;;12.20;99.90;;;;;;4994155;28;19926;-67
2022/09/24 04:54:28;;;;;;;;;;;12.10;99.90;;;;;;4993898;28;19926;-66
2022/09/24 04:56:55;;;;;;;;;;;12.00;99.90;;;;;;4993218;28;20016;-66
2022/09/24 04:59:22;;;;;;;;;;;11.90;99.90;;;;;;4992909;28;19925;-66
2022/09/24 05:01:49;;;;;;;;;;;11.90;99.90;;;;;;4991367;28;19937;-66
2022/09/24 05:04:15;;;;;;;;;;;11.90;99.90;;;;;;4995336;28;19930;-66
2022/09/24 05:06:42;;;;;;;;;;;11.80;99.90;;;;;;4993417;28;19926;-67
2022/09/24 05:09:09;;;;;;;;;;;11.80;99.90;;;;;;4993236;28;19934;-66
2022/09/24 05:11:37;;;;;;;;;;;11.80;99.90;;;;;;4993580;28;19929;-67
2022/09/24 05:14:04;;;;;;;;;;;11.80;99.90;;;;;;4993282;28;19926;-66
2022/09/24 05:16:31;;;;;;;;;;;11.80;99.90;;;;;;4992231;28;20403;-65
2022/09/24 05:18:58;;;;;;;;;;;11.80;99.90;;;;;;4990197;28;19930;-67
2022/09/24 05:21:25;;;;;;;;;;;11.80;99.90;;;;;;4991700;28;19926;-66
2022/09/24 05:23:52;;;;;;;;;;;11.70;99.90;;;;;;4989225;28;19926;-67
2022/09/24 05:29:04;;;;;;;;;;;11.70;99.90;;;;;;4990615;28;19922;-68
2022/09/24 05:31:31;;;;;;;;;;;11.80;99.90;;;;;;4991602;28;19929;-67
2022/09/24 05:33:58;;;;;;;;;;;11.80;99.90;;;;;;4990282;28;19926;-66
2022/09/24 05:36:25;;;;;;;;;;;11.80;99.90;;;;;;4991254;28;19972;-67
2022/09/24 05:38:52;;;;;;;;;;;11.80;99.90;;;;;;4991370;28;19935;-67
2022/09/24 05:41:20;;;;;;;;;;;11.80;99.90;;;;;;4991475;28;19925;-67
2022/09/24 05:43:47;;;;;;;;;;;11.80;99.90;;;;;;4991080;28;19929;-68
2022/09/24 05:46:16;;;;;;;;;;;11.90;99.90;;;;;;4986681;28;19930;-66
2022/09/24 05:48:43;;;;;;;;;;;11.90;99.90;;;;;;4990607;28;19925;-68
2022/09/24 05:51:09;;;;;;;;;;;12.00;99.90;;;;;;4991545;28;19926;-66
2022/09/24 05:53:36;;;;;;;;;;;12.00;99.90;;;;;;4991615;28;19941;-67
2022/09/24 05:56:03;;;;;;;;;;;12.10;99.90;;;;;;4989221;28;19926;-68
2022/09/24 05:58:30;;;;;;;;;;;12.10;99.90;;;;;;4990965;28;19953;-68
2022/09/24 06:00:58;;;;;;;;;;;12.00;99.90;;;;;;4990150;28;19925;-68
2022/09/24 06:03:28;;;;;;;;;;;11.90;99.90;;;;;;4990249;28;19926;-68
2022/09/24 06:05:58;;;;;;;;;;;12.00;99.90;;;;;;4990540;28;19976;-68
2022/09/24 06:08:25;;;;;;;;;;;12.00;99.90;;;;;;4990595;28;19926;-68
2022/09/24 06:10:53;;;;;;;;;;;12.00;99.90;;;;;;4990428;28;19932;-70
2022/09/24 06:13:20;;;;;;;;;;;12.10;99.90;;;;;;4990333;28;19932;-68
2022/09/24 06:15:47;;;;;;;;;;;12.10;99.90;;;;;;5023712;28;19930;-66
2022/09/24 06:18:14;;;;;;;;;;;12.10;99.90;;;;;;4991316;28;19934;-68
2022/09/24 06:20:43;;;;;;;;;;;12.10;99.90;;;;;;4991037;28;20344;-66
2022/09/24 06:23:10;;;;;;;;;;;12.20;99.90;;;;;;4990901;28;20371;-67
2022/09/24 06:25:36;;;;;;;;;;;12.20;99.90;;;;;;4991242;28;19975;-68
2022/09/24 06:28:04;;;;;;;;;;;12.20;99.90;;;;;;4991108;28;19929;-67
2022/09/24 06:30:32;;;;;;;;;;;12.30;99.90;;;;;;4991058;28;19925;-67
2022/09/24 06:33:01;;;;;;;;;;;12.40;99.90;;;;;;4990655;28;19933;-66
2022/09/24 06:35:28;;;;;;;;;;;12.50;99.90;;;;;;4991091;28;20029;-66
2022/09/24 06:37:57;;;;;;;;;;;12.60;99.90;;;;;;4991032;28;20278;-67
2022/09/24 06:40:24;;;;;;;;;;;12.60;99.90;;;;;;4991132;28;19933;-67
2022/09/24 06:42:52;;;;;;;;;;;12.70;99.90;;;;;;4990216;28;19961;-66
2022/09/24 06:45:19;;;;;;;;;;;12.80;99.90;;;;;;4990674;28;19925;-65
2022/09/24 06:47:51;;;;;;;;;;;12.90;99.90;;;;;;4987401;28;20365;-66
2022/09/24 06:50:18;;;;;;;;;;;12.90;99.90;;;;;;4990659;28;19937;-68
2022/09/24 06:52:45;;;;;;;;;;;13.00;99.90;;;;;;4990199;28;19976;-69
2022/09/24 06:55:13;;;;;;;;;;;13.10;99.90;;;;;;4991492;28;20333;-71
2022/09/24 06:57:40;;;;;;;;;;;13.10;99.90;;;;;;4990986;28;20400;-69
2022/09/24 07:00:07;;;;;;;;;;;13.20;99.90;;;;;;4991030;28;19926;-69
2022/09/24 07:02:34;;;;;;;;;;;13.20;99.90;;;;;;4990806;28;20305;-70
2022/09/24 07:05:01;;;;;;;;;;;13.30;99.90;;;;;;4991007;28;19926;-67
2022/09/24 07:07:32;;;;;;;;;;;13.40;99.90;;;;;;4991029;28;19937;-70
2022/09/24 07:10:00;;;;;;;;;;;13.50;99.90;;;;;;4990388;28;19996;-70
2022/09/24 07:12:28;;;;;;;;;;;13.50;99.90;;;;;;4972880;28;19926;-70
2022/09/24 07:14:55;;;;;;;;;;;13.60;99.90;;;;;;4971117;28;19926;-67
2022/09/24 07:17:22;;;;;;;;;;;13.70;99.90;;;;;;4979261;28;19941;-67
2022/09/24 07:19:48;;;;;;;;;;;13.70;99.90;;;;;;4989992;28;19933;-67
2022/09/24 07:22:15;;;;;;;;;;;13.80;99.90;;;;;;4990537;28;19925;-66
2022/09/24 07:24:42;;;;;;;;;;;13.80;99.90;;;;;;4993581;28;19938;-67
2022/09/24 07:27:09;;;;;;;;;;;13.90;99.90;;;;;;4995108;28;19929;-67
2022/09/24 07:29:37;;;;;;;;;;;14.00;99.90;;;;;;4994483;28;19926;-66
2022/09/24 07:32:04;;;;;;;;;;;14.00;99.90;;;;;;4994409;28;20389;-67
2022/09/24 07:34:31;;;;;;;;;;;14.10;99.90;;;;;;4994007;28;20348;-67
2022/09/24 07:36:58;;;;;;;;;;;14.10;99.90;;;;;;4994466;28;19929;-67
2022/09/24 07:39:26;;;;;;;;;;;14.20;99.90;;;;;;4994423;28;19926;-66
2022/09/24 07:41:53;;;;;;;;;;;14.30;99.90;;;;;;4993814;28;20372;-67
2022/09/24 07:44:20;;;;;;;;;;;14.30;99.90;;;;;;4993620;28;19985;-67
2022/09/24 07:46:48;;;;;;;;;;;14.40;99.90;;;;;;4994038;28;19926;-67
2022/09/24 07:49:15;;;;;;;;;;;14.40;99.90;;;;;;4992871;28;19933;-67
2022/09/24 07:51:42;;;;;;;;;;;14.50;99.90;;;;;;4993920;28;19929;-66
2022/09/24 07:54:09;;;;;;;;;;;14.50;99.90;;;;;;4993736;28;19926;-68
2022/09/24 07:56:36;;;;;;;;;;;14.60;99.90;;;;;;4994120;28;20357;-68
2022/09/24 07:59:05;;;;;;;;;;;14.60;99.90;;;;;;4993537;28;19925;-67
2022/09/24 08:01:32;;;;;;;;;;;14.60;99.90;;;;;;4993884;28;19926;-68
2022/09/24 08:04:00;;;;;;;;;;;14.70;99.90;;;;;;4993531;28;19936;-67
2022/09/24 08:06:27;;;;;;;;;;;14.80;99.90;;;;;;4993863;28;20005;-66
2022/09/24 08:08:55;;;;;;;;;;;14.80;99.90;;;;;;4993601;28;20373;-66
2022/09/24 08:11:22;;;;;;;;;;;14.80;99.90;;;;;;4984554;28;19957;-68
2022/09/24 08:13:49;;;;;;;;;;;14.90;99.90;;;;;;4973857;28;19926;-67
2022/09/24 08:16:16;;;;;;;;;;;15.00;99.90;;;;;;4973935;28;19961;-67
2022/09/24 08:18:43;;;;;;;;;;;15.00;99.90;;;;;;4974225;28;19933;-67
2022/09/24 08:21:14;;;;;;;;;;;15.00;99.90;;;;;;4974112;28;19930;-67
2022/09/24 08:23:41;;;;;;;;;;;15.20;99.90;;;;;;4973881;28;19926;-67
2022/09/24 08:26:08;;;;;;;;;;;15.30;99.90;;;;;;4973994;28;19934;-66
2022/09/24 08:28:35;;;;;;;;;;;15.20;99.90;;;;;;4974122;28;19926;-68
2022/09/24 08:31:03;;;;;;;;;;;15.30;99.90;;;;;;4973554;28;20465;-67
2022/09/24 08:33:32;;;;;;;;;;;15.50;99.90;;;;;;4973701;28;19926;-64
2022/09/24 08:35:59;;;;;;;;;;;15.70;99.90;;;;;;4973700;28;20316;-67
2022/09/24 08:38:28;;;;;;;;;;;15.80;99.90;;;;;;4973857;28;19942;-66
2022/09/24 08:40:57;;;;;;;;;;;16.00;99.90;;;;;;4973443;28;19926;-67
2022/09/24 08:43:30;;;;;;;;;;;16.00;99.90;;;;;;4973413;28;19934;-67
2022/09/24 08:48:45;;;;;;;;;;;16.10;99.90;;;;;;4973330;28;19929;-66
2022/09/24 08:51:13;;;;;;;;;;;16.10;99.90;;;;;;4973275;28;19985;-66
2022/09/24 08:53:45;;;;;;;;;;;16.20;99.90;;;;;;4973455;28;19926;-66
2022/09/24 08:56:12;;;;;;;;;;;16.40;99.90;;;;;;4973370;28;20385;-67
2022/09/24 08:58:43;;;;;;;;;;;16.40;99.90;;;;;;4957379;28;19945;-66
2022/09/24 09:01:14;;;;;;;;;;;16.40;99.90;;;;;;4956902;28;19926;-67
2022/09/24 09:03:45;;;;;;;;;;;16.50;99.90;;;;;;4957078;28;19930;-66
2022/09/24 09:06:15;;;;;;;;;;;16.30;99.90;;;;;;4957242;28;19926;-67
2022/09/24 09:08:48;;;;;;;;;;;16.30;99.90;;;;;;4957323;28;19926;-67
2022/09/24 09:11:16;;;;;;;;;;;16.30;99.90;;;;;;4957322;28;20313;-67
2022/09/24 09:13:45;;;;;;;;;;;16.30;99.90;;;;;;4956947;28;19930;-67
2022/09/24 09:16:22;;;;;;;;;;;16.20;99.90;;;;;;4956666;28;19926;-67
2022/09/24 09:18:50;;;;;;;;;;;16.20;99.90;;;;;;4956888;28;19934;-66
2022/09/24 09:21:18;;;;;;;;;;;16.10;99.90;;;;;;4957472;28;19933;-63
2022/09/24 09:23:49;;;;;;;;;;;16.10;99.90;;;;;;4957405;28;20317;-67
2022/09/24 09:26:17;;;;;;;;;;;16.20;99.90;;;;;;4957362;28;19957;-66
2022/09/24 09:28:44;;;;;;;;;;;16.30;99.90;;;;;;4957535;28;19926;-67
2022/09/24 09:31:17;;;;;;;;;;;16.40;99.90;;;;;;4957242;28;19926;-67
2022/09/24 09:33:55;;;;;;;;;;;16.40;99.90;;;;;;4957146;28;19964;-67
2022/09/24 09:36:31;;;;;;;;;;;16.30;99.90;;;;;;4957464;28;19969;-66
2022/09/24 09:39:03;;;;;;;;;;;16.30;99.90;;;;;;4956903;28;19936;-67
2022/09/24 09:41:34;;;;;;;;;;;16.30;99.90;;;;;;4957668;28;19980;-66
2022/09/24 09:44:05;;;;;;;;;;;16.30;99.90;;;;;;4957105;28;19926;-67
2022/09/24 09:46:34;;;;;;;;;;;16.10;99.90;;;;;;4956766;28;19933;-65
2022/09/24 09:49:02;;;;;;;;;;;16.20;99.90;;;;;;4956921;28;19926;-66
2022/09/24 09:51:30;;;;;;;;;;;16.10;99.90;;;;;;4957516;28;19933;-65
2022/09/24 09:53:58;;;;;;;;;;;16.00;99.90;;;;;;4957230;28;19926;-65
2022/09/24 09:56:28;;;;;;;;;;;15.90;99.90;;;;;;4962300;28;19933;-66
2022/09/24 09:59:02;;;;;;;;;;;16.00;99.90;;;;;;4986493;28;19926;-68
2022/09/24 10:01:31;;;;;;;;;;;16.10;99.90;;;;;;4992779;28;19965;-68
2022/09/24 10:04:01;;;;;;;;;;;16.20;99.90;;;;;;4992617;28;19936;-67
2022/09/24 10:06:30;;;;;;;;;;;16.20;99.90;;;;;;4992172;28;19929;-67
2022/09/24 10:09:06;;;;;;;;;;;16.10;99.90;;;;;;4992350;28;19926;-67
2022/09/24 10:11:35;;;;;;;;;;;16.10;99.90;;;;;;4991953;28;19953;-68
2022/09/24 10:14:02;;;;;;;;;;;16.00;99.90;;;;;;4992372;28;19925;-69
2022/09/24 10:16:29;;;;;;;;;;;15.80;99.90;;;;;;4991375;28;20405;-68
2022/09/24 10:18:56;;;;;;;;;;;16.00;99.90;;;;;;4990249;28;19930;-67
2022/09/24 10:21:26;;;;;;;;;;;16.20;99.90;;;;;;4990655;28;19926;-67
2022/09/24 10:23:59;;;;;;;;;;;16.40;99.90;;;;;;4990071;28;20341;-68
2022/09/24 10:26:35;;;;;;;;;;;16.50;99.90;;;;;;4990955;28;20453;-68
2022/09/24 10:31:49;;;;;;;;;;;16.70;99.90;;;;;;4967952;28;19922;-66
2022/09/24 10:34:22;;;;;;;;;;;16.90;99.90;;;;;;4991469;28;19926;-68
2022/09/24 10:36:52;;;;;;;;;;;17.00;99.90;;;;;;4992234;28;19929;-69
2022/09/24 10:39:20;;;;;;;;;;;17.10;99.90;;;;;;4989314;28;19980;-70
2022/09/24 10:41:49;;;;;;;;;;;17.10;99.90;;;;;;4990454;28;19926;-66
2022/09/24 10:44:17;;;;;;;;;;;17.20;99.90;;;;;;4989357;28;19961;-67
2022/09/24 10:47:06;;;;;;;;;;;17.40;99.90;;;;;;4990112;28;19956;-65
2022/09/24 10:49:40;;;;;;;;;;;17.50;99.90;;;;;;4985595;28;19926;-67
2022/09/24 10:52:12;;;;;;;;;;;17.70;99.90;;;;;;4990430;28;19930;-67
2022/09/24 10:54:48;;;;;;;;;;;17.80;99.90;;;;;;4988911;28;19929;-66
2022/09/24 10:57:24;;;;;;;;;;;17.90;99.90;;;;;;4989373;28;19926;-67
2022/09/24 10:59:57;;;;;;;;;;;17.80;99.90;;;;;;4988995;28;20343;-66
2022/09/24 11:02:30;;;;;;;;;;;17.90;99.90;;;;;;4991165;28;19926;-69
2022/09/24 11:04:59;;;;;;;;;;;17.90;99.90;;;;;;4991118;28;19926;-67
2022/09/24 11:07:34;;;;;;;;;;;17.90;99.90;;;;;;4991344;28;19984;-70
2022/09/24 11:10:05;;;;;;;;;;;17.80;99.90;;;;;;4988796;28;19926;-68
2022/09/24 11:12:38;;;;;;;;;;;17.70;99.90;;;;;;4990440;28;20020;-69
2022/09/24 11:15:13;;;;;;;;;;;17.60;99.90;;;;;;4989554;28;20401;-69
2022/09/24 11:17:45;;;;;;;;;;;17.40;99.90;;;;;;4989708;28;19940;-69
2022/09/24 11:20:16;;;;;;;;;;;17.20;99.90;;;;;;4989697;28;19926;-69
2022/09/24 11:22:51;;;;;;;;;;;17.10;99.90;;;;;;4989419;28;20350;-70
2022/09/24 11:25:23;;;;;;;;;;;16.90;99.90;;;;;;4989808;28;19972;-69
2022/09/24 11:27:56;;;;;;;;;;;16.80;99.90;;;;;;4989718;28;20033;-66
2022/09/24 11:30:24;;;;;;;;;;;16.80;99.90;;;;;;4989635;28;19933;-66
2022/09/24 11:32:58;;;;;;;;;;;16.80;99.90;;;;;;4989744;28;20024;-67
2022/09/24 11:35:45;;;;;;;;;;;16.70;99.90;;;;;;4991332;28;19926;-67
2022/09/24 11:38:16;;;;;;;;;;;16.70;99.90;;;;;;4989569;28;19998;-69
2022/09/24 11:40:51;;;;;;;;;;;16.70;99.90;;;;;;4991350;28;19933;-70
2022/09/24 11:43:33;;;;;;;;;;;16.60;99.90;;;;;;4991035;28;19925;-68
2022/09/24 11:46:09;;;;;;;;;;;16.60;99.90;;;;;;4991348;28;19929;-69
2022/09/24 11:48:49;;;;;;;;;;;16.50;99.90;;;;;;4991020;28;19965;-68
2022/09/24 11:51:23;;;;;;;;;;;16.60;99.90;;;;;;4991138;28;19926;-69
2022/09/24 11:53:53;;;;;;;;;;;16.60;99.90;;;;;;4990875;28;19976;-68
2022/09/24 11:56:22;;;;;;;;;;;16.60;99.90;;;;;;4990855;28;19941;-69
2022/09/24 11:58:57;;;;;;;;;;;16.60;99.90;;;;;;4990781;28;20404;-68
2022/09/24 12:01:26;;;;;;;;;;;16.60;99.90;;;;;;4991437;28;19929;-69
2022/09/24 12:03:57;;;;;;;;;;;16.60;99.90;;;;;;4991055;28;19977;-69
2022/09/24 12:06:25;;;;;;;;;;;16.60;99.90;;;;;;4991306;28;19930;-69
2022/09/24 12:08:55;;;;;;;;;;;16.70;99.90;;;;;;4990877;28;19932;-69
2022/09/24 12:11:27;;;;;;;;;;;16.70;99.90;;;;;;4994992;28;19949;-69
2022/09/24 12:13:59;;;;;;;;;;;16.80;99.90;;;;;;4994430;28;19932;-69
2022/09/24 12:16:27;;;;;;;;;;;16.90;99.90;;;;;;4994635;28;19933;-69
2022/09/24 12:18:55;;;;;;;;;;;16.90;99.90;;;;;;4994552;28;20021;-70
2022/09/24 12:21:26;;;;;;;;;;;16.90;99.90;;;;;;4994324;28;19925;-68
2022/09/24 12:23:55;;;;;;;;;;;17.00;99.90;;;;;;4994614;28;19926;-69
2022/09/24 12:26:24;;;;;;;;;;;17.00;99.90;;;;;;4994769;28;20030;-69
2022/09/24 12:34:31;;;;;;;;;;;17.10;99.90;;;;;;4994331;28;19976;-68
2022/09/24 12:37:01;;;;;;;;;;;17.20;99.90;;;;;;4994413;28;19925;-68
2022/09/24 12:39:31;;;;;;;;;;;17.40;99.90;;;;;;4994279;28;19926;-69
2022/09/24 12:42:00;;;;;;;;;;;17.50;99.90;;;;;;4994468;28;19926;-69
2022/09/24 12:44:30;;;;;;;;;;;17.60;99.90;;;;;;4993870;28;19934;-69
2022/09/24 12:46:59;;;;;;;;;;;17.60;99.90;;;;;;4993909;28;19925;-70
2022/09/24 12:49:30;;;;;;;;;;;17.60;99.90;;;;;;4993973;28;19933;-70
2022/09/24 12:51:58;;;;;;;;;;;17.90;99.90;;;;;;4994483;28;19926;-73
2022/09/24 12:54:31;;;;;;;;;;;18.10;99.90;;;;;;4993914;28;19933;-70
2022/09/24 12:57:08;;;;;;;;;;;18.40;99.90;;;;;;4993953;28;19961;-69
2022/09/24 12:59:45;;;;;;;;;;;18.50;99.90;;;;;;4993711;28;19925;-69
2022/09/24 13:02:18;;;;;;;;;;;18.70;99.90;;;;;;4993897;28;20377;-70
2022/09/24 13:04:50;;;;;;;;;;;18.80;99.90;;;;;;4993715;28;19925;-70
2022/09/24 13:07:28;;;;;;;;;;;18.90;99.90;;;;;;4994043;28;19957;-70
2022/09/24 13:09:55;;;;;;;;;;;18.80;99.90;;;;;;4993680;28;19926;-69
2022/09/24 13:12:23;;;;;;;;;;;18.80;99.90;;;;;;4992288;28;19930;-70
2022/09/24 13:14:55;;;;;;;;;;;18.80;99.90;;;;;;4989943;28;20340;-69
2022/09/24 13:17:23;;;;;;;;;;;18.70;99.90;;;;;;4993601;28;19957;-69
2022/09/24 13:19:56;;;;;;;;;;;18.60;99.90;;;;;;4993221;28;20389;-69
2022/09/24 13:22:25;;;;;;;;;;;18.50;99.90;;;;;;4992475;28;19929;-68
2022/09/24 13:24:53;;;;;;;;;;;18.50;99.90;;;;;;4993522;28;19933;-68
2022/09/24 13:27:21;;;;;;;;;;;18.40;99.90;;;;;;4992977;28;19926;-68
2022/09/24 13:29:53;;;;;;;;;;;18.40;99.90;;;;;;4992941;28;20290;-69
2022/09/24 13:32:21;;;;;;;;;;;18.40;99.90;;;;;;4993381;28;19925;-68
2022/09/24 13:34:50;;;;;;;;;;;18.40;99.90;;;;;;4993406;28;19926;-69
2022/09/24 13:37:20;;;;;;;;;;;18.30;99.90;;;;;;4993228;28;19925;-70
2022/09/24 13:39:49;;;;;;;;;;;18.30;99.90;;;;;;4992888;28;20370;-71
2022/09/24 13:42:19;;;;;;;;;;;18.20;99.90;;;;;;4993185;28;19925;-70
2022/09/24 13:44:47;;;;;;;;;;;18.20;99.90;;;;;;4992822;28;19926;-70
2022/09/24 13:47:15;;;;;;;;;;;18.10;99.90;;;;;;4992893;28;19925;-70
2022/09/24 13:49:44;;;;;;;;;;;18.10;99.90;;;;;;4992846;28;19930;-70
2022/09/24 13:52:15;;;;;;;;;;;18.10;99.90;;;;;;4992894;28;19926;-71
2022/09/24 13:54:47;;;;;;;;;;;18.10;99.90;;;;;;4992992;28;19926;-70
2022/09/24 13:57:20;;;;;;;;;;;18.10;99.90;;;;;;5021151;23;19929;-69
2022/09/24 13:59:47;;;;;;;;;;;18.10;99.90;;;;;;5011457;28;19961;-70
2022/09/24 14:02:22;;;;;;;;;;;18.20;99.90;;;;;;5012387;28;19967;-69
2022/09/24 14:04:52;;;;;;;;;;;18.20;99.90;;;;;;5027096;28;19925;-69
2022/09/24 14:07:21;;;;;;;;;;;18.20;99.90;;;;;;5011088;28;19926;-70
2022/09/24 14:09:50;;;;;;;;;;;18.20;99.90;;;;;;5012678;28;19925;-68
2022/09/24 14:12:20;;;;;;;;;;;18.20;99.90;;;;;;4995661;28;19926;-70
2022/09/24 14:14:52;;;;;;;;;;;18.20;99.90;;;;;;4991884;28;19968;-69
2022/09/24 14:17:21;;;;;;;;;;;18.20;99.90;;;;;;4991483;28;20367;-71
2022/09/24 14:19:48;;;;;;;;;;;18.10;99.90;;;;;;4990955;28;19926;-71
2022/09/24 14:22:18;;;;;;;;;;;18.00;99.90;;;;;;4991653;28;19926;-76
2022/09/24 14:24:53;;;;;;;;;;;18.00;99.90;;;;;;4991112;28;19925;-68
2022/09/24 14:27:22;;;;;;;;;;;18.00;99.90;;;;;;4991189;28;19926;-70
2022/09/24 14:29:50;;;;;;;;;;;17.90;99.90;;;;;;4990978;28;19926;-70
2022/09/24 14:32:20;;;;;;;;;;;17.90;99.90;;;;;;4990727;28;19926;-66
2022/09/24 14:34:50;;;;;;;;;;;17.80;99.90;;;;;;5007889;28;20004;-67
2022/09/24 14:37:19;;;;;;;;;;;17.80;99.90;;;;;;5010624;28;20289;-69
2022/09/24 14:39:48;;;;;;;;;;;17.70;99.90;;;;;;5009669;28;19926;-67
2022/09/24 14:42:21;;;;;;;;;;;17.70;99.90;;;;;;5010097;28;20447;-69